createdAt,value
2022-12-24T00:01:07.862Z,1.40
2022-12-24T00:03:37.186Z,1.08
2022-12-24T00:06:09.391Z,1.88
2022-12-24T00:08:36.611Z,1.60
2022-12-24T00:11:03.689Z,1.17
2022-12-24T00:13:30.662Z,3.03
2022-12-24T00:15:57.605Z,1.38
2022-12-24T00:18:24.883Z,2.97
2022-12-24T00:20:55.013Z,1.42
2022-12-24T00:23:25.415Z,1.80
2022-12-24T00:25:52.670Z,1.90
2022-12-24T00:28:23.265Z,0.90
2022-12-24T00:30:50.323Z,1.42
2022-12-24T00:33:24.033Z,0.80
2022-12-24T00:35:53.013Z,1.63
2022-12-24T00:38:20.123Z,1.23
2022-12-24T00:40:47.152Z,1.00
2022-12-24T00:43:14.181Z,0.90
2022-12-24T00:45:41.153Z,1.33
2022-12-24T00:48:08.080Z,1.10
2022-12-24T00:50:35.106Z,1.10
2022-12-24T00:53:02.049Z,1.42
2022-12-24T00:55:30.702Z,1.20
2022-12-24T00:58:06.442Z,0.90
2022-12-24T01:00:34.112Z,1.42
2022-12-24T01:03:01.439Z,1.10
2022-12-24T01:05:28.869Z,4.20
2022-12-24T01:07:56.078Z,1.17
2022-12-24T01:10:33.082Z,1.20
2022-12-24T01:13:05.558Z,1.00
2022-12-24T01:15:32.830Z,5.18
2022-12-24T01:17:59.878Z,1.10
2022-12-24T01:20:31.775Z,1.60
2022-12-24T01:22:59.033Z,0.60
2022-12-24T01:25:28.367Z,0.88
2022-12-24T01:27:55.568Z,1.52
2022-12-24T01:30:25.325Z,2.58
2022-12-24T01:32:52.389Z,2.00
2022-12-24T01:35:19.628Z,0.95
2022-12-24T01:37:46.679Z,4.18
2022-12-24T01:40:47.452Z,1.48
2022-12-24T01:43:25.074Z,1.33
2022-12-24T01:45:56.435Z,2.10
2022-12-24T01:48:29.947Z,3.13
2022-12-24T01:51:15.545Z,2.67
2022-12-24T01:53:45.383Z,1.45
2022-12-24T01:56:13.573Z,2.03
2022-12-24T01:58:46.532Z,0.88
2022-12-24T02:01:13.671Z,2.10
2022-12-24T02:03:40.819Z,2.83
2022-12-24T02:06:10.663Z,2.00
2022-12-24T02:08:41.247Z,4.07
2022-12-24T02:11:22.063Z,1.77
2022-12-24T02:13:57.741Z,0.73
2022-12-24T02:16:43.145Z,1.23
2022-12-24T02:19:13.186Z,1.70
2022-12-24T02:22:02.803Z,3.90
2022-12-24T02:24:54.120Z,1.30
2022-12-24T02:27:59.403Z,2.22
2022-12-24T02:30:34.900Z,0.70
2022-12-24T02:33:12.981Z,0.80
2022-12-24T02:35:50.723Z,1.13
2022-12-24T02:38:31.840Z,0.50
2022-12-24T02:41:04.663Z,1.35
2022-12-24T02:43:36.074Z,0.70
2022-12-24T02:46:13.893Z,0.80
2022-12-24T02:48:46.765Z,0.50
2022-12-24T02:51:13.913Z,0.50
2022-12-24T02:53:41.585Z,0.70
2022-12-24T02:56:36.146Z,1.55
2022-12-24T02:59:39.263Z,1.33
2022-12-24T03:02:40.390Z,1.02
2022-12-24T03:05:24.019Z,0.98
2022-12-24T03:07:59.864Z,0.68
2022-12-24T03:10:34.851Z,0.73
2022-12-24T03:13:10.805Z,0.90
2022-12-24T03:15:39.718Z,0.60
2022-12-24T03:18:10.864Z,6.93
2022-12-24T03:20:42.114Z,2.28
2022-12-24T03:23:09.195Z,1.10
2022-12-24T03:25:40.479Z,0.98
2022-12-24T03:28:08.967Z,1.60
2022-12-24T03:30:39.124Z,2.20
2022-12-24T03:33:06.167Z,0.80
2022-12-24T03:35:33.221Z,0.40
2022-12-24T03:38:00.097Z,0.57
2022-12-24T03:40:27.008Z,0.40
2022-12-24T03:42:53.939Z,2.58
2022-12-24T03:45:20.893Z,2.85
2022-12-24T03:47:48.067Z,1.38
2022-12-24T03:50:15.224Z,0.70
2022-12-24T03:52:42.168Z,1.77
2022-12-24T03:55:09.263Z,0.80
2022-12-24T03:57:36.216Z,2.83
2022-12-24T04:00:05.474Z,0.85
2022-12-24T04:02:38.918Z,0.65
2022-12-24T04:05:07.056Z,2.65
2022-12-24T04:07:34.521Z,0.82
2022-12-24T04:10:01.423Z,2.03
2022-12-24T04:12:28.356Z,1.10
2022-12-24T04:14:55.363Z,0.85
2022-12-24T04:17:22.313Z,1.60
2022-12-24T04:19:49.297Z,0.70
2022-12-24T04:22:16.421Z,0.40
2022-12-24T04:24:43.373Z,0.70
2022-12-24T04:27:10.312Z,0.60
2022-12-24T04:29:37.212Z,0.40
2022-12-24T04:32:04.316Z,1.38
2022-12-24T04:34:31.292Z,0.30
2022-12-24T04:36:58.342Z,0.50
2022-12-24T04:39:25.373Z,0.80
2022-12-24T04:41:52.285Z,0.68
2022-12-24T04:44:19.219Z,0.60
2022-12-24T04:46:46.084Z,2.53
2022-12-24T04:49:13.164Z,1.15
2022-12-24T04:51:40.157Z,1.48
2022-12-24T04:54:07.175Z,1.23
2022-12-24T04:56:34.179Z,1.33
2022-12-24T04:59:01.818Z,1.20
2022-12-24T05:01:31.976Z,0.60
2022-12-24T05:03:59.499Z,1.45
2022-12-24T05:06:30.802Z,1.33
2022-12-24T05:08:59.432Z,2.78
2022-12-24T05:11:26.578Z,0.90
2022-12-24T05:13:53.525Z,1.08
2022-12-24T05:16:22.319Z,1.15
2022-12-24T05:18:49.788Z,2.78
2022-12-24T05:21:20.040Z,8.77
2022-12-24T05:24:06.428Z,23.75
2022-12-24T05:26:38.272Z,35.28
2022-12-24T05:29:06.171Z,6.72
2022-12-24T05:31:34.115Z,18.30
2022-12-24T05:34:01.632Z,5.43
2022-12-24T05:36:28.795Z,5.03
2022-12-24T05:38:55.855Z,42.58
2022-12-24T05:41:23.632Z,47.25
2022-12-24T05:43:50.686Z,58.03
2022-12-24T05:46:21.869Z,15.13
2022-12-24T05:48:49.525Z,5.20
2022-12-24T05:51:22.280Z,16.13
2022-12-24T05:53:50.978Z,20.40
2022-12-24T05:56:20.773Z,8.00
2022-12-24T05:58:48.258Z,18.35
2022-12-24T06:01:15.775Z,44.78
2022-12-24T06:03:42.901Z,18.38
2022-12-24T06:06:11.287Z,42.22
2022-12-24T06:08:39.155Z,27.90
2022-12-24T06:11:08.844Z,26.45
2022-12-24T06:13:36.431Z,39.83
2022-12-24T06:16:05.582Z,47.17
2022-12-24T06:18:34.207Z,48.53
2022-12-24T06:21:02.320Z,93.45
2022-12-24T06:23:31.834Z,111.82
2022-12-24T06:26:03.137Z,86.30
2022-12-24T06:28:36.277Z,19.33
2022-12-24T06:31:04.570Z,95.57
2022-12-24T06:33:32.736Z,115.70
2022-12-24T06:35:59.998Z,17.08
2022-12-24T06:38:26.949Z,36.28
2022-12-24T06:40:56.008Z,32.30
2022-12-24T06:43:23.266Z,89.47
2022-12-24T06:45:50.462Z,56.92
2022-12-24T06:48:17.975Z,37.38
2022-12-24T06:50:45.466Z,18.13
2022-12-24T06:53:12.429Z,5.25
2022-12-24T06:55:39.415Z,11.50
2022-12-24T06:58:06.434Z,4.25
2022-12-24T07:00:33.666Z,7.03
2022-12-24T07:03:00.750Z,1.63
2022-12-24T07:05:28.075Z,5.50
2022-12-24T07:07:55.159Z,92.40
2022-12-24T07:10:22.782Z,79.65
2022-12-24T07:12:49.722Z,8.07
2022-12-24T07:15:17.307Z,3.53
2022-12-24T07:17:44.655Z,3.92
2022-12-24T07:20:15.181Z,1.60
2022-12-24T07:22:43.351Z,3.67
2022-12-24T07:25:11.806Z,3.35
2022-12-24T07:27:39.635Z,51.08
2022-12-24T07:30:07.737Z,59.28
2022-12-24T07:32:34.800Z,13.88
2022-12-24T07:35:01.825Z,54.63
2022-12-24T07:37:28.931Z,34.92
2022-12-24T07:39:55.958Z,20.13
2022-12-24T07:42:22.973Z,25.80
2022-12-24T07:44:50.009Z,16.88
2022-12-24T07:47:17.089Z,12.18
2022-12-24T07:49:44.024Z,3.55
2022-12-24T07:52:11.025Z,6.63
2022-12-24T07:54:37.985Z,35.58
2022-12-24T07:57:04.977Z,7.35
2022-12-24T07:59:32.004Z,5.28
2022-12-24T08:01:59.103Z,6.47
2022-12-24T08:04:26.181Z,15.80
2022-12-24T08:06:53.051Z,26.70
2022-12-24T08:09:19.918Z,26.23
2022-12-24T08:11:51.928Z,9.77
2022-12-24T08:14:20.055Z,7.93
2022-12-24T08:16:47.178Z,2.65
2022-12-24T08:19:14.337Z,16.58
2022-12-24T08:21:41.331Z,2.97
2022-12-24T08:24:08.500Z,5.45
2022-12-24T08:26:35.736Z,6.05
2022-12-24T08:29:04.047Z,4.35
2022-12-24T08:31:36.552Z,1.95
2022-12-24T08:34:08.292Z,4.72
2022-12-24T08:36:35.893Z,9.93
2022-12-24T08:39:03.852Z,13.63
2022-12-24T08:41:32.176Z,7.75
2022-12-24T08:43:59.263Z,11.02
2022-12-24T08:46:26.770Z,1.88
2022-12-24T08:48:53.887Z,13.77
2022-12-24T08:51:20.828Z,2.53
2022-12-24T08:53:47.943Z,1.73
2022-12-24T08:56:15.064Z,6.30
2022-12-24T08:58:42.328Z,4.85
2022-12-24T09:01:14.900Z,9.52
2022-12-24T09:03:42.539Z,6.35
2022-12-24T09:06:10.521Z,10.85
2022-12-24T09:08:37.937Z,11.00
2022-12-24T09:11:10.773Z,10.60
2022-12-24T09:13:38.255Z,6.45
2022-12-24T09:16:06.206Z,8.38
2022-12-24T09:18:33.485Z,6.63
2022-12-24T09:21:06.563Z,8.77
2022-12-24T09:23:36.144Z,3.67
2022-12-24T09:26:13.725Z,2.22
2022-12-24T09:28:40.852Z,5.88
2022-12-24T09:31:07.969Z,0.77
2022-12-24T09:33:37.449Z,9.50
2022-12-24T09:36:05.565Z,21.58
2022-12-24T09:38:33.566Z,13.40
2022-12-24T09:41:07.115Z,7.82
2022-12-24T09:43:37.926Z,1.38
2022-12-24T09:46:08.210Z,5.97
2022-12-24T09:48:39.641Z,1.58
2022-12-24T09:51:09.861Z,1.38
2022-12-24T09:53:40.757Z,0.57
2022-12-24T09:56:41.801Z,1.92
2022-12-24T09:59:18.294Z,0.40
2022-12-24T10:01:45.488Z,0.50
2022-12-24T10:04:22.027Z,0.50
2022-12-24T10:07:03.007Z,0.70
2022-12-24T10:09:48.211Z,0.52
2022-12-24T10:15:10.311Z,0.80
2022-12-24T10:18:11.478Z,0.40
2022-12-24T10:20:45.647Z,0.80
2022-12-24T10:23:38.605Z,0.30
2022-12-24T10:26:14.537Z,0.20
2022-12-24T10:28:47.375Z,0.95
2022-12-24T10:31:15.349Z,1.63
2022-12-24T10:33:43.912Z,0.35
2022-12-24T10:36:19.283Z,3.97
2022-12-24T10:38:46.740Z,15.80
2022-12-24T10:41:15.466Z,1.10
2022-12-24T10:43:45.195Z,3.85
2022-12-24T10:46:39.349Z,0.57
2022-12-24T10:49:12.947Z,0.70
2022-12-24T10:51:48.547Z,3.30
2022-12-24T10:54:26.560Z,1.50
2022-12-24T10:57:00.376Z,0.82
2022-12-24T10:59:50.398Z,0.70
2022-12-24T11:02:38.783Z,0.85
2022-12-24T11:05:34.558Z,0.38
2022-12-24T11:10:37.016Z,0.20
2022-12-24T11:13:36.441Z,1.15
2022-12-24T11:16:02.080Z,0.40
2022-12-24T11:18:29.775Z,0.40
2022-12-24T11:20:59.656Z,0.75
2022-12-24T11:23:28.514Z,0.60
2022-12-24T11:25:57.253Z,0.60
2022-12-24T11:28:33.653Z,0.40
2022-12-24T11:31:20.839Z,22.27
2022-12-24T11:33:51.320Z,1.67
2022-12-24T11:36:22.146Z,0.40
2022-12-24T11:38:59.253Z,0.90
2022-12-24T11:41:26.843Z,0.88
2022-12-24T11:44:04.014Z,1.77
2022-12-24T11:46:43.689Z,0.65
2022-12-24T11:49:22.387Z,0.40
2022-12-24T11:52:10.387Z,0.50
2022-12-24T11:55:13.747Z,1.00
2022-12-24T11:58:00.748Z,0.70
2022-12-24T12:00:28.845Z,0.95
2022-12-24T12:02:59.487Z,0.80
2022-12-24T12:05:33.949Z,0.30
2022-12-24T12:08:30.565Z,0.70
2022-12-24T12:11:00.115Z,2.15
2022-12-24T12:13:33.414Z,1.40
2022-12-24T12:16:57.397Z,0.40
2022-12-24T12:19:26.162Z,2.45
2022-12-24T12:21:53.343Z,0.80
2022-12-24T12:24:32.424Z,1.40
2022-12-24T12:27:40.387Z,0.70
2022-12-24T12:30:17.942Z,0.70
2022-12-24T12:33:22.531Z,0.55
2022-12-24T12:35:51.065Z,0.30
2022-12-24T12:38:29.294Z,0.73
2022-12-24T12:41:20.756Z,0.82
2022-12-24T12:44:02.662Z,1.25
2022-12-24T12:46:54.743Z,0.77
2022-12-24T12:49:40.453Z,0.52
2022-12-24T12:52:33.899Z,1.70
2022-12-24T12:55:24.728Z,0.35
2022-12-24T12:57:58.098Z,0.50
2022-12-24T13:00:25.896Z,0.45
2022-12-24T13:03:05.217Z,0.30
2022-12-24T13:06:13.380Z,0.35
2022-12-24T13:08:58.466Z,0.40
2022-12-24T13:11:43.556Z,0.60
2022-12-24T13:14:22.881Z,0.50
2022-12-24T13:16:58.731Z,0.70
2022-12-24T13:19:49.849Z,0.50
2022-12-24T13:22:18.729Z,0.77
2022-12-24T13:24:54.357Z,0.90
2022-12-24T13:27:32.054Z,2.55
2022-12-24T13:30:27.634Z,0.98
2022-12-24T13:32:55.395Z,0.80
2022-12-24T13:35:22.435Z,0.80
2022-12-24T13:37:50.915Z,0.63
2022-12-24T13:40:26.912Z,0.40
2022-12-24T13:43:03.084Z,2.72
2022-12-24T13:45:30.306Z,0.90
2022-12-24T13:48:02.524Z,0.70
2022-12-24T13:50:41.539Z,5.03
2022-12-24T13:53:33.148Z,2.88
2022-12-24T13:56:17.884Z,1.70
2022-12-24T13:58:49.303Z,1.02
2022-12-24T14:01:35.610Z,1.45
2022-12-24T14:04:07.045Z,1.38
2022-12-24T14:06:38.041Z,2.45
2022-12-24T14:09:16.847Z,0.90
2022-12-24T14:11:58.934Z,0.30
2022-12-24T14:14:29.174Z,0.77
2022-12-24T14:17:00.416Z,0.60
2022-12-24T14:19:48.379Z,0.47
2022-12-24T14:22:38.864Z,2.92
2022-12-24T14:25:23.638Z,1.92
2022-12-24T14:28:06.108Z,16.83
2022-12-24T14:30:33.337Z,4.75
2022-12-24T14:33:00.281Z,1.05
2022-12-24T14:35:37.122Z,1.17
2022-12-24T14:38:08.126Z,1.38
2022-12-24T14:40:57.116Z,2.05
2022-12-24T14:43:43.192Z,0.85
2022-12-24T14:46:31.793Z,1.63
2022-12-24T14:49:28.244Z,0.52
2022-12-24T14:52:00.679Z,0.60
2022-12-24T14:54:37.686Z,0.52
2022-12-24T14:57:25.487Z,0.40
2022-12-24T15:00:02.339Z,0.65
2022-12-24T15:02:43.945Z,1.20
2022-12-24T15:05:12.742Z,2.13
2022-12-24T15:07:47.492Z,0.65
2022-12-24T15:10:42.841Z,1.15
2022-12-24T15:13:37.227Z,3.05
2022-12-24T15:16:08.714Z,1.15
2022-12-24T15:18:38.096Z,0.50
2022-12-24T15:21:08.049Z,0.88
2022-12-24T15:23:37.501Z,1.42
2022-12-24T15:26:09.100Z,0.75
2022-12-24T15:28:39.365Z,0.98
2022-12-24T15:31:22.014Z,0.63
2022-12-24T15:33:53.842Z,0.57
2022-12-24T15:36:34.587Z,1.55
2022-12-24T15:39:16.961Z,0.30
2022-12-24T15:42:04.515Z,1.80
2022-12-24T15:44:37.258Z,2.58
2022-12-24T15:47:07.828Z,1.88
2022-12-24T15:49:36.767Z,3.50
2022-12-24T15:52:06.882Z,2.22
2022-12-24T15:54:34.418Z,2.40
2022-12-24T15:57:21.627Z,1.77
2022-12-24T15:59:57.055Z,1.15
2022-12-24T16:02:36.196Z,2.90
2022-12-24T16:05:22.618Z,5.70
2022-12-24T16:08:22.614Z,3.25
2022-12-24T16:11:08.204Z,4.60
2022-12-24T16:13:43.995Z,3.83
2022-12-24T16:16:16.103Z,1.88
2022-12-24T16:18:43.446Z,0.82
2022-12-24T16:21:18.948Z,11.73
2022-12-24T16:23:48.836Z,5.88
2022-12-24T16:26:16.421Z,1.13
2022-12-24T16:28:43.487Z,0.60
2022-12-24T16:31:29.816Z,3.15
2022-12-24T16:33:59.121Z,2.17
2022-12-24T16:36:26.702Z,2.10
2022-12-24T16:39:12.270Z,1.65
2022-12-24T16:41:57.905Z,8.98
2022-12-24T16:44:24.949Z,7.55
2022-12-24T16:46:53.604Z,12.27
2022-12-24T16:49:22.547Z,11.45
2022-12-24T16:51:49.891Z,8.43
2022-12-24T16:54:16.940Z,15.50
2022-12-24T16:56:44.818Z,4.95
2022-12-24T16:59:20.650Z,5.40
2022-12-24T17:01:48.586Z,9.73
2022-12-24T17:04:17.390Z,150.27
2022-12-24T17:06:45.107Z,11.32
2022-12-24T17:09:12.978Z,4.03
2022-12-24T17:11:39.951Z,9.13
2022-12-24T17:14:09.954Z,12.43
2022-12-24T17:16:39.559Z,1.42
2022-12-24T17:19:06.745Z,1.27
2022-12-24T17:21:34.597Z,6.68
2022-12-24T17:24:01.629Z,1.08
2022-12-24T17:26:28.742Z,1.50
2022-12-24T17:28:57.018Z,1.85
2022-12-24T17:31:24.904Z,2.63
2022-12-24T17:33:53.046Z,6.90
2022-12-24T17:36:20.311Z,1.50
2022-12-24T17:38:47.625Z,1.67
2022-12-24T17:41:17.310Z,1.95
2022-12-24T17:43:44.726Z,3.35
2022-12-24T17:46:18.020Z,2.58
2022-12-24T17:48:45.420Z,5.60
2022-12-24T17:51:14.386Z,2.28
2022-12-24T17:53:42.954Z,2.95
2022-12-24T17:56:12.481Z,3.45
2022-12-24T17:58:43.825Z,3.05
2022-12-24T18:01:17.583Z,2.40
2022-12-24T18:03:45.885Z,6.75
2022-12-24T18:06:14.423Z,4.72
2022-12-24T18:08:42.723Z,3.30
2022-12-24T18:11:20.760Z,1.70
2022-12-24T18:13:48.922Z,2.63
2022-12-24T18:16:24.171Z,2.17
2022-12-24T18:18:52.188Z,2.47
2022-12-24T18:21:21.487Z,2.38
2022-12-24T18:23:50.811Z,1.63
2022-12-24T18:26:19.160Z,4.82
2022-12-24T18:28:47.480Z,1.60
2022-12-24T18:31:20.093Z,1.85
2022-12-24T18:33:48.963Z,1.30
2022-12-24T18:36:16.102Z,3.42
2022-12-24T18:38:42.996Z,1.20
2022-12-24T18:41:13.113Z,1.25
2022-12-24T18:43:41.565Z,4.05
2022-12-24T18:46:13.967Z,1.40
2022-12-24T18:48:41.065Z,1.17
2022-12-24T18:51:09.413Z,5.47
2022-12-24T18:53:39.499Z,4.18
2022-12-24T18:56:15.947Z,2.58
2022-12-24T18:58:44.024Z,3.03
2022-12-24T19:01:17.774Z,3.15
2022-12-24T19:03:45.700Z,1.30
2022-12-24T19:06:12.722Z,2.47
2022-12-24T19:08:57.221Z,3.08
2022-12-24T19:11:27.192Z,7.15
2022-12-24T19:13:54.216Z,3.83
2022-12-24T19:16:21.983Z,3.50
2022-12-24T19:18:49.620Z,2.22
2022-12-24T19:21:18.074Z,2.10
2022-12-24T19:23:46.306Z,4.28
2022-12-24T19:26:15.065Z,3.65
2022-12-24T19:28:42.886Z,2.08
2022-12-24T19:31:13.012Z,4.20
2022-12-24T19:33:43.755Z,1.80
2022-12-24T19:36:14.482Z,1.50
2022-12-24T19:38:41.744Z,1.95
2022-12-24T19:41:17.217Z,1.40
2022-12-24T19:43:47.217Z,1.10
2022-12-24T19:46:17.663Z,1.30
2022-12-24T19:48:50.271Z,1.05
2022-12-24T19:51:17.945Z,1.90
2022-12-24T19:53:45.095Z,4.15
2022-12-24T19:56:19.050Z,2.20
2022-12-24T19:58:46.328Z,1.47
2022-12-24T20:01:16.544Z,1.15
2022-12-24T20:03:45.243Z,3.75
2022-12-24T20:06:13.095Z,4.90
2022-12-24T20:08:40.760Z,1.13
2022-12-24T20:11:10.077Z,0.75
2022-12-24T20:13:38.395Z,1.08
2022-12-24T20:16:11.238Z,2.95
2022-12-24T20:18:38.395Z,6.68
2022-12-24T20:21:09.037Z,2.38
2022-12-24T20:23:40.774Z,0.73
2022-12-24T20:26:11.045Z,2.35
2022-12-24T20:28:38.775Z,1.98
2022-12-24T20:31:21.061Z,1.23
2022-12-24T20:33:48.968Z,2.50
2022-12-24T20:36:18.961Z,1.00
2022-12-24T20:38:46.954Z,1.60
2022-12-24T20:41:16.440Z,0.70
2022-12-24T20:43:48.315Z,0.82
2022-12-24T20:46:17.543Z,1.83
2022-12-24T20:48:45.182Z,2.60
2022-12-24T20:51:24.625Z,2.53
2022-12-24T20:53:53.818Z,1.20
2022-12-24T20:56:21.486Z,3.42
2022-12-24T20:58:48.759Z,2.05
2022-12-24T21:01:24.532Z,0.93
2022-12-24T21:03:53.735Z,1.70
2022-12-24T21:06:21.156Z,1.20
2022-12-24T21:08:52.744Z,3.35
2022-12-24T21:11:38.452Z,1.48
2022-12-24T21:14:05.829Z,1.88
2022-12-24T21:16:35.374Z,1.23
2022-12-24T21:19:02.625Z,1.60
2022-12-24T21:21:30.063Z,4.30
2022-12-24T21:23:57.421Z,7.20
2022-12-24T21:26:24.532Z,1.95
2022-12-24T21:28:51.705Z,3.67
2022-12-24T21:31:19.341Z,1.20
2022-12-24T21:33:46.555Z,5.28
2022-12-24T21:36:14.630Z,3.58
2022-12-24T21:38:42.387Z,1.27
2022-12-24T21:41:12.859Z,7.43
2022-12-24T21:43:43.021Z,2.97
2022-12-24T21:46:13.107Z,2.22
2022-12-24T21:48:58.818Z,3.50
2022-12-24T21:51:27.067Z,1.02
2022-12-24T21:54:13.779Z,1.83
2022-12-24T21:57:00.118Z,2.58
2022-12-24T21:59:27.559Z,2.78
2022-12-24T22:01:55.957Z,4.88
2022-12-24T22:04:23.811Z,2.53
2022-12-24T22:07:09.638Z,1.05
2022-12-24T22:09:57.102Z,1.40
2022-12-24T22:12:24.286Z,0.90
2022-12-24T22:14:52.102Z,0.75
2022-12-24T22:17:24.803Z,2.10
2022-12-24T22:19:53.796Z,2.20
2022-12-24T22:22:21.161Z,0.75
2022-12-24T22:24:48.216Z,1.65
2022-12-24T22:27:15.118Z,1.00
2022-12-24T22:29:42.147Z,3.42
2022-12-24T22:32:09.847Z,2.53
2022-12-24T22:34:36.803Z,3.10
2022-12-24T22:37:03.856Z,3.63
2022-12-24T22:39:30.979Z,0.93
2022-12-24T22:42:01.179Z,2.47
2022-12-24T22:44:28.235Z,12.05
2022-12-24T22:46:55.479Z,6.15
2022-12-24T22:49:22.526Z,2.63
2022-12-24T22:51:49.623Z,3.67
2022-12-24T22:54:16.787Z,4.45
2022-12-24T22:56:43.878Z,1.70
2022-12-24T22:59:14.010Z,1.08
2022-12-24T23:01:43.586Z,0.80
2022-12-24T23:04:11.493Z,2.58
2022-12-24T23:06:39.111Z,0.60
2022-12-24T23:09:08.271Z,3.80
2022-12-24T23:11:35.595Z,0.55
2022-12-24T23:14:21.138Z,0.85
2022-12-24T23:16:48.208Z,0.65
2022-12-24T23:19:18.553Z,0.60
2022-12-24T23:21:45.565Z,0.90
2022-12-24T23:24:12.573Z,0.77
2022-12-24T23:26:40.335Z,0.77
2022-12-24T23:29:07.307Z,1.40
2022-12-24T23:31:35.070Z,0.75
2022-12-24T23:34:02.183Z,0.82
2022-12-24T23:36:29.322Z,6.75
2022-12-24T23:38:57.704Z,3.53
2022-12-24T23:41:24.720Z,2.35
2022-12-24T23:43:52.221Z,0.85
2022-12-24T23:46:20.518Z,1.25
2022-12-24T23:48:48.126Z,0.47
2022-12-24T23:51:23.739Z,0.60
2022-12-24T23:53:52.484Z,0.70
2022-12-24T23:56:20.860Z,1.05
2022-12-24T23:58:48.259Z,0.70
